createdAt,value
2018-07-21T00:00:48.450Z,1007.70
2018-07-21T00:01:48.466Z,1007.73
2018-07-21T00:02:48.478Z,1007.73
2018-07-21T00:03:48.501Z,1007.70
2018-07-21T00:04:48.569Z,1007.72
2018-07-21T00:05:48.527Z,1007.71
2018-07-21T00:06:48.543Z,1007.70
2018-07-21T00:07:48.571Z,1007.69
2018-07-21T00:08:48.571Z,1007.69
2018-07-21T00:09:48.600Z,1007.70
2018-07-21T00:10:48.655Z,1007.78
2018-07-21T00:11:48.630Z,1007.60
2018-07-21T00:12:48.641Z,1007.73
2018-07-21T00:13:48.647Z,1007.68
2018-07-21T00:14:48.677Z,1007.70
2018-07-21T00:15:48.683Z,1007.71
2018-07-21T00:16:48.747Z,1007.70
2018-07-21T00:17:48.720Z,1007.67
2018-07-21T00:18:48.733Z,1007.64
2018-07-21T00:19:48.762Z,1007.73
2018-07-21T00:20:48.819Z,1007.68
2018-07-21T00:21:48.788Z,1007.69
2018-07-21T00:22:48.848Z,1007.60
2018-07-21T00:23:48.816Z,1007.68
2018-07-21T00:24:48.834Z,1007.69
2018-07-21T00:25:48.850Z,1007.68
2018-07-21T00:26:48.914Z,1007.71
2018-07-21T00:27:48.885Z,1007.67
2018-07-21T00:28:48.953Z,1007.72
2018-07-21T00:29:48.917Z,1007.69
2018-07-21T00:30:48.942Z,1007.62
2018-07-21T00:31:48.950Z,1007.65
2018-07-21T00:32:49.000Z,1007.63
2018-07-21T00:33:48.986Z,1007.72
2018-07-21T00:34:49.054Z,1007.64
2018-07-21T00:35:49.013Z,1007.57
2018-07-21T00:36:49.025Z,1007.65
2018-07-21T00:37:49.042Z,1007.51
2018-07-21T00:38:49.105Z,1007.54
2018-07-21T00:39:49.089Z,1007.56
2018-07-21T00:40:49.152Z,1007.58
2018-07-21T00:41:49.121Z,1007.54
2018-07-21T00:42:49.134Z,1007.56
2018-07-21T00:43:49.142Z,1007.59
2018-07-21T00:44:49.212Z,1007.52
2018-07-21T00:45:49.177Z,1007.55
2018-07-21T00:46:49.190Z,1007.48
2018-07-21T00:47:49.202Z,1007.50
2018-07-21T00:48:49.225Z,1007.48
2018-07-21T00:49:49.270Z,1007.51
2018-07-21T00:50:49.286Z,1007.49
2018-07-21T00:51:49.274Z,1007.50
2018-07-21T00:52:49.372Z,1007.50
2018-07-21T00:53:49.314Z,1007.45
2018-07-21T00:54:49.316Z,1007.46
2018-07-21T00:55:49.336Z,1007.48
2018-07-21T00:56:49.348Z,1007.48
2018-07-21T00:57:49.365Z,1007.42
2018-07-21T00:58:49.435Z,1007.44
2018-07-21T00:59:49.406Z,1007.47
2018-07-21T01:00:49.412Z,1007.41
2018-07-21T01:01:49.432Z,1007.42
2018-07-21T01:02:49.440Z,1007.49
2018-07-21T01:03:49.462Z,1007.41
2018-07-21T01:04:49.486Z,1007.41
2018-07-21T01:05:49.492Z,1007.32
2018-07-21T01:06:49.515Z,1007.37
2018-07-21T01:07:49.534Z,1007.33
2018-07-21T01:08:49.611Z,1007.35
2018-07-21T01:09:49.566Z,1007.36
2018-07-21T01:10:49.583Z,1007.33
2018-07-21T01:11:49.593Z,1007.29
2018-07-21T01:12:49.605Z,1007.29
2018-07-21T01:13:49.630Z,1007.21
2018-07-21T01:14:49.680Z,1007.26
2018-07-21T01:15:49.657Z,1007.23
2018-07-21T01:16:49.672Z,1007.25
2018-07-21T01:17:49.689Z,1007.23
2018-07-21T01:18:49.707Z,1007.21
2018-07-21T01:19:49.731Z,1007.25
2018-07-21T01:20:49.759Z,1007.22
2018-07-21T01:21:49.755Z,1007.21
2018-07-21T01:22:49.822Z,1007.29
2018-07-21T01:23:49.788Z,1007.24
2018-07-21T01:24:49.808Z,1007.25
2018-07-21T01:25:49.827Z,1007.16
2018-07-21T01:26:49.858Z,1007.18
2018-07-21T01:27:49.856Z,1007.15
2018-07-21T01:28:49.921Z,1007.17
2018-07-21T01:29:49.882Z,1007.09
2018-07-21T01:30:49.904Z,1007.16
2018-07-21T01:31:49.927Z,1007.13
2018-07-21T01:32:50.020Z,1007.12
2018-07-21T01:33:49.955Z,1007.19
2018-07-21T01:34:50.018Z,1007.17
2018-07-21T01:35:49.985Z,1007.18
2018-07-21T01:36:50.004Z,1007.15
2018-07-21T01:37:50.018Z,1007.08
2018-07-21T01:38:50.089Z,1007.08
2018-07-21T01:39:50.082Z,1007.07
2018-07-21T01:40:50.124Z,1007.08
2018-07-21T01:41:50.148Z,1007.06
2018-07-21T01:42:50.148Z,1007.09
2018-07-21T01:43:50.134Z,1007.06
2018-07-21T01:44:50.140Z,1007.10
2018-07-21T01:45:50.148Z,1007.08
2018-07-21T01:46:50.213Z,1007.03
2018-07-21T01:47:50.178Z,1007.07
2018-07-21T01:48:50.204Z,1007.00
2018-07-21T01:49:50.213Z,1007.03
2018-07-21T01:50:50.237Z,1007.01
2018-07-21T01:51:50.250Z,1007.01
2018-07-21T01:52:50.258Z,1006.97
2018-07-21T01:53:50.277Z,1006.93
2018-07-21T01:54:50.300Z,1006.89
2018-07-21T01:55:50.314Z,1006.89
2018-07-21T01:56:50.325Z,1006.85
2018-07-21T01:57:50.343Z,1006.85
2018-07-21T01:58:50.356Z,1006.85
2018-07-21T01:59:50.380Z,1006.86
2018-07-21T02:00:50.392Z,1006.86
2018-07-21T02:01:50.408Z,1006.77
2018-07-21T02:02:50.424Z,1006.84
2018-07-21T02:03:50.442Z,1006.82
2018-07-21T02:04:50.510Z,1006.82
2018-07-21T02:05:50.474Z,1006.84
2018-07-21T02:06:50.486Z,1006.79
2018-07-21T02:07:50.502Z,1006.80
2018-07-21T02:08:50.524Z,1006.78
2018-07-21T02:09:50.536Z,1006.81
2018-07-21T02:10:50.602Z,1006.80
2018-07-21T02:11:50.576Z,1006.78
2018-07-21T02:12:50.592Z,1006.79
2018-07-21T02:13:50.604Z,1006.81
2018-07-21T02:14:50.621Z,1006.78
2018-07-21T02:15:50.646Z,1006.77
2018-07-21T02:16:50.661Z,1006.74
2018-07-21T02:17:50.667Z,1006.75
2018-07-21T02:18:50.687Z,1006.71
2018-07-21T02:19:50.699Z,1006.74
2018-07-21T02:20:50.719Z,1006.66
2018-07-21T02:21:50.734Z,1006.69
2018-07-21T02:22:50.804Z,1006.68
2018-07-21T02:23:50.802Z,1006.67
2018-07-21T02:24:50.789Z,1006.68
2018-07-21T02:25:50.803Z,1006.72
2018-07-21T02:26:50.871Z,1006.67
2018-07-21T02:27:50.833Z,1006.70
2018-07-21T02:28:50.908Z,1006.69
2018-07-21T02:29:50.866Z,1006.78
2018-07-21T02:30:50.882Z,1006.67
2018-07-21T02:31:50.898Z,1006.66
2018-07-21T02:32:50.923Z,1006.70
2018-07-21T02:33:50.930Z,1006.71
2018-07-21T02:34:51.005Z,1006.65
2018-07-21T02:35:50.968Z,1006.67
2018-07-21T02:36:50.980Z,1006.66
2018-07-21T02:37:50.990Z,1006.67
2018-07-21T02:38:51.012Z,1006.70
2018-07-21T02:39:51.028Z,1006.57
2018-07-21T02:40:51.050Z,1006.56
2018-07-21T02:41:51.060Z,1006.55
2018-07-21T02:42:51.081Z,1006.59
2018-07-21T02:43:51.113Z,1006.56
2018-07-21T02:44:51.121Z,1006.55
2018-07-21T02:45:51.126Z,1006.56
2018-07-21T02:46:51.152Z,1006.57
2018-07-21T02:47:51.169Z,1006.51
2018-07-21T02:48:51.189Z,1006.46
2018-07-21T02:49:51.192Z,1006.51
2018-07-21T02:50:51.213Z,1006.49
2018-07-21T02:51:51.237Z,1006.52
2018-07-21T02:52:51.296Z,1006.51
2018-07-21T02:53:51.255Z,1006.51
2018-07-21T02:54:51.277Z,1006.44
2018-07-21T02:55:51.286Z,1006.44
2018-07-21T02:56:51.323Z,1006.48
2018-07-21T02:57:51.379Z,1006.41
2018-07-21T02:58:51.394Z,1006.39
2018-07-21T02:59:51.360Z,1006.41
2018-07-21T03:00:51.371Z,1006.38
2018-07-21T03:01:51.383Z,1006.40
2018-07-21T03:02:51.406Z,1006.35
2018-07-21T03:03:51.421Z,1006.39
2018-07-21T03:04:51.440Z,1006.41
2018-07-21T03:05:51.460Z,1006.42
2018-07-21T03:06:51.480Z,1006.43
2018-07-21T03:07:51.491Z,1006.47
2018-07-21T03:08:51.510Z,1006.42
2018-07-21T03:09:51.535Z,1006.44
2018-07-21T03:10:51.541Z,1006.42
2018-07-21T03:11:51.560Z,1006.44
2018-07-21T03:12:51.569Z,1006.50
2018-07-21T03:13:51.593Z,1006.47
2018-07-21T03:14:51.603Z,1006.49
2018-07-21T03:15:51.625Z,1006.42
2018-07-21T03:16:51.689Z,1006.42
2018-07-21T03:17:51.655Z,1006.42
2018-07-21T03:18:51.674Z,1006.44
2018-07-21T03:19:51.688Z,1006.45
2018-07-21T03:20:51.702Z,1006.47
2018-07-21T03:21:51.717Z,1006.45
2018-07-21T03:22:51.736Z,1006.48
2018-07-21T03:23:51.750Z,1006.45
2018-07-21T03:24:51.758Z,1006.42
2018-07-21T03:25:51.786Z,1006.44
2018-07-21T03:26:51.797Z,1006.44
2018-07-21T03:27:51.811Z,1006.46
2018-07-21T03:28:51.879Z,1006.51
2018-07-21T03:29:51.845Z,1006.47
2018-07-21T03:30:51.873Z,1006.48
2018-07-21T03:31:51.882Z,1006.45
2018-07-21T03:32:51.895Z,1006.41
2018-07-21T03:33:51.946Z,1006.40
2018-07-21T03:34:51.985Z,1006.40
2018-07-21T03:35:51.943Z,1006.36
2018-07-21T03:36:51.965Z,1006.33
2018-07-21T03:37:51.985Z,1006.37
2018-07-21T03:38:52.001Z,1006.36
2018-07-21T03:39:52.013Z,1006.39
2018-07-21T03:40:52.076Z,1006.33
2018-07-21T03:41:52.042Z,1006.31
2018-07-21T03:42:52.069Z,1006.35
2018-07-21T03:43:52.081Z,1006.31
2018-07-21T03:44:52.087Z,1006.25
2018-07-21T03:45:52.142Z,1006.23
2018-07-21T03:46:52.123Z,1006.25
2018-07-21T03:47:52.145Z,1006.32
2018-07-21T03:48:52.157Z,1006.28
2018-07-21T03:49:52.170Z,1006.26
2018-07-21T03:50:52.183Z,1006.29
2018-07-21T03:51:52.219Z,1006.22
2018-07-21T03:52:52.330Z,1006.26
2018-07-21T03:53:52.242Z,1006.30
2018-07-21T03:54:52.254Z,1006.33
2018-07-21T03:55:52.271Z,1006.28
2018-07-21T03:56:52.285Z,1006.17
2018-07-21T03:57:52.345Z,1006.22
2018-07-21T03:58:52.315Z,1006.19
2018-07-21T03:59:52.333Z,1006.21
2018-07-21T04:00:52.354Z,1006.26
2018-07-21T04:01:52.373Z,1006.29
2018-07-21T04:02:52.387Z,1006.27
2018-07-21T04:03:52.401Z,1006.28
2018-07-21T04:04:52.496Z,1006.26
2018-07-21T04:05:52.429Z,1006.26
2018-07-21T04:06:52.457Z,1006.27
2018-07-21T04:07:52.463Z,1006.28
2018-07-21T04:08:52.593Z,1006.33
2018-07-21T04:09:52.499Z,1006.29
2018-07-21T04:10:52.536Z,1006.28
2018-07-21T04:11:52.531Z,1006.31
2018-07-21T04:12:52.540Z,1006.34
2018-07-21T04:13:52.560Z,1006.36
2018-07-21T04:14:52.582Z,1006.30
2018-07-21T04:15:52.597Z,1006.30
2018-07-21T04:16:52.755Z,1006.34
2018-07-21T04:17:52.630Z,1006.33
2018-07-21T04:18:52.644Z,1006.42
2018-07-21T04:19:52.658Z,1006.32
2018-07-21T04:20:52.674Z,1006.36
2018-07-21T04:21:52.684Z,1006.33
2018-07-21T04:22:52.756Z,1006.34
2018-07-21T04:23:52.719Z,1006.29
2018-07-21T04:24:52.737Z,1006.39
2018-07-21T04:25:52.756Z,1006.30
2018-07-21T04:26:52.768Z,1006.35
2018-07-21T04:27:52.785Z,1006.38
2018-07-21T04:28:52.806Z,1006.34
2018-07-21T04:29:52.818Z,1006.32
2018-07-21T04:30:52.832Z,1006.36
2018-07-21T04:31:52.851Z,1006.36
2018-07-21T04:32:52.866Z,1006.41
2018-07-21T04:33:52.879Z,1006.37
2018-07-21T04:34:52.956Z,1006.30
2018-07-21T04:35:52.922Z,1006.36
2018-07-21T04:36:52.932Z,1006.40
2018-07-21T04:37:52.950Z,1006.29
2018-07-21T04:38:52.972Z,1006.37
2018-07-21T04:39:52.980Z,1006.32
2018-07-21T04:40:53.056Z,1006.28
2018-07-21T04:41:53.021Z,1006.34
2018-07-21T04:42:53.034Z,1006.32
2018-07-21T04:43:53.043Z,1006.31
2018-07-21T04:44:53.066Z,1006.31
2018-07-21T04:45:53.082Z,1006.37
2018-07-21T04:46:53.097Z,1006.35
2018-07-21T04:47:53.114Z,1006.27
2018-07-21T04:48:53.128Z,1006.36
2018-07-21T04:49:53.140Z,1006.35
2018-07-21T04:50:53.152Z,1006.32
2018-07-21T04:51:53.178Z,1006.34
2018-07-21T04:52:53.246Z,1006.31
2018-07-21T04:53:53.256Z,1006.36
2018-07-21T04:54:53.224Z,1006.33
2018-07-21T04:55:53.238Z,1006.36
2018-07-21T04:56:53.256Z,1006.33
2018-07-21T04:57:53.270Z,1006.31
2018-07-21T04:58:53.283Z,1006.31
2018-07-21T04:59:53.322Z,1006.35
2018-07-21T05:00:53.452Z,1006.38
2018-07-21T05:01:53.328Z,1006.42
2018-07-21T05:02:53.352Z,1006.47
2018-07-21T05:03:53.363Z,1006.39
2018-07-21T05:04:53.386Z,1006.39
2018-07-21T05:05:53.399Z,1006.46
2018-07-21T05:06:53.415Z,1006.52
2018-07-21T05:07:53.434Z,1006.51
2018-07-21T05:08:53.444Z,1006.55
2018-07-21T05:09:53.466Z,1006.57
2018-07-21T05:10:53.531Z,1006.52
2018-07-21T05:11:53.492Z,1006.52
2018-07-21T05:12:53.508Z,1006.53
2018-07-21T05:13:53.530Z,1006.54
2018-07-21T05:14:53.551Z,1006.57
2018-07-21T05:15:53.569Z,1006.56
2018-07-21T05:16:53.628Z,1006.58
2018-07-21T05:17:53.592Z,1006.55
2018-07-21T05:18:53.624Z,1006.57
2018-07-21T05:19:53.627Z,1006.56
2018-07-21T05:20:53.635Z,1006.57
2018-07-21T05:21:53.661Z,1006.62
2018-07-21T05:22:53.722Z,1006.64
2018-07-21T05:23:53.696Z,1006.61
2018-07-21T05:24:53.753Z,1006.59
2018-07-21T05:25:53.720Z,1006.62
2018-07-21T05:26:53.732Z,1006.60
2018-07-21T05:27:53.755Z,1006.65
2018-07-21T05:28:53.825Z,1006.60
2018-07-21T05:29:53.782Z,1006.58
2018-07-21T05:30:53.912Z,1006.58
2018-07-21T05:31:53.818Z,1006.61
2018-07-21T05:32:53.828Z,1006.57
2018-07-21T05:33:53.853Z,1006.56
2018-07-21T05:34:53.868Z,1006.56
2018-07-21T05:35:53.887Z,1006.59
2018-07-21T05:36:53.982Z,1006.52
2018-07-21T05:37:53.907Z,1006.54
2018-07-21T05:38:53.929Z,1006.53
2018-07-21T05:39:54.005Z,1006.54
2018-07-21T05:40:53.964Z,1006.50
2018-07-21T05:41:53.975Z,1006.52
2018-07-21T05:42:54.043Z,1006.40
2018-07-21T05:43:54.018Z,1006.51
2018-07-21T05:44:54.030Z,1006.45
2018-07-21T05:45:54.040Z,1006.50
2018-07-21T05:46:54.063Z,1006.49
2018-07-21T05:47:54.077Z,1006.43
2018-07-21T05:48:54.098Z,1006.50
2018-07-21T05:49:54.113Z,1006.56
2018-07-21T05:50:54.123Z,1006.57
2018-07-21T05:51:54.140Z,1006.52
2018-07-21T05:52:54.158Z,1006.52
2018-07-21T05:53:54.169Z,1006.51
2018-07-21T05:54:54.236Z,1006.54
2018-07-21T05:55:54.196Z,1006.52
2018-07-21T05:56:54.214Z,1006.53
2018-07-21T05:57:54.290Z,1006.51
2018-07-21T05:58:54.244Z,1006.53
2018-07-21T05:59:54.267Z,1006.53
2018-07-21T06:00:54.282Z,1006.56
2018-07-21T06:01:54.303Z,1006.56
2018-07-21T06:02:54.363Z,1006.52
2018-07-21T06:03:54.378Z,1006.54
2018-07-21T06:04:54.348Z,1006.56
2018-07-21T06:05:54.367Z,1006.56
2018-07-21T06:06:54.378Z,1006.56
2018-07-21T06:07:54.400Z,1006.57
2018-07-21T06:08:54.408Z,1006.57
2018-07-21T06:09:54.485Z,1006.58
2018-07-21T06:10:54.451Z,1006.56
2018-07-21T06:11:54.460Z,1006.61
2018-07-21T06:12:54.476Z,1006.61
2018-07-21T06:13:54.490Z,1006.56
2018-07-21T06:14:54.510Z,1006.60
2018-07-21T06:15:54.527Z,1006.66
2018-07-21T06:16:54.602Z,1006.59
2018-07-21T06:17:54.556Z,1006.62
2018-07-21T06:18:54.574Z,1006.59
2018-07-21T06:19:54.631Z,1006.61
2018-07-21T06:20:54.604Z,1006.61
2018-07-21T06:21:54.624Z,1006.63
2018-07-21T06:22:54.639Z,1006.62
2018-07-21T06:23:54.653Z,1006.59
2018-07-21T06:24:54.675Z,1006.59
2018-07-21T06:25:54.718Z,1006.61
2018-07-21T06:26:54.703Z,1006.57
2018-07-21T06:27:54.787Z,1006.56
2018-07-21T06:28:54.735Z,1006.59
2018-07-21T06:29:54.744Z,1006.58
2018-07-21T06:30:54.768Z,1006.55
2018-07-21T06:31:54.792Z,1006.54
2018-07-21T06:32:54.831Z,1006.52
2018-07-21T06:33:54.871Z,1006.51
2018-07-21T06:34:54.828Z,1006.52
2018-07-21T06:35:54.844Z,1006.54
2018-07-21T06:36:54.866Z,1006.53
2018-07-21T06:37:54.883Z,1006.55
2018-07-21T06:38:54.897Z,1006.52
2018-07-21T06:39:54.959Z,1006.53
2018-07-21T06:40:54.927Z,1006.53
2018-07-21T06:41:54.945Z,1006.51
2018-07-21T06:42:54.960Z,1006.57
2018-07-21T06:43:55.039Z,1006.57
2018-07-21T06:44:54.984Z,1006.52
2018-07-21T06:45:55.015Z,1006.53
2018-07-21T06:46:55.027Z,1006.59
2018-07-21T06:47:55.044Z,1006.60
2018-07-21T06:48:55.059Z,1006.57
2018-07-21T06:49:55.079Z,1006.57
2018-07-21T06:50:55.093Z,1006.61
2018-07-21T06:51:55.108Z,1006.57
2018-07-21T06:52:55.124Z,1006.61
2018-07-21T06:53:55.137Z,1006.57
2018-07-21T06:54:55.165Z,1006.65
2018-07-21T06:55:55.182Z,1006.66
2018-07-21T06:56:55.189Z,1006.65
2018-07-21T06:57:55.200Z,1006.66
2018-07-21T06:58:55.230Z,1006.70
2018-07-21T06:59:55.241Z,1006.65
2018-07-21T07:00:55.253Z,1006.68
2018-07-21T07:01:55.272Z,1006.67
2018-07-21T07:02:55.295Z,1006.66
2018-07-21T07:03:55.355Z,1006.61
2018-07-21T07:04:55.323Z,1006.68
2018-07-21T07:05:55.333Z,1006.65
2018-07-21T07:06:55.355Z,1006.67
2018-07-21T07:07:55.374Z,1006.65
2018-07-21T07:08:55.395Z,1006.67
2018-07-21T07:09:55.400Z,1006.68
2018-07-21T07:10:55.422Z,1006.68
2018-07-21T07:11:55.453Z,1006.64
2018-07-21T07:12:55.455Z,1006.64
2018-07-21T07:13:55.473Z,1006.64
2018-07-21T07:14:55.495Z,1006.68
2018-07-21T07:15:55.563Z,1006.67
2018-07-21T07:16:55.517Z,1006.71
2018-07-21T07:17:55.541Z,1006.72
2018-07-21T07:18:55.556Z,1006.73
2018-07-21T07:19:55.575Z,1006.76
2018-07-21T07:20:55.673Z,1006.76
2018-07-21T07:21:55.659Z,1006.79
2018-07-21T07:22:55.633Z,1006.83
2018-07-21T07:23:55.652Z,1006.86
2018-07-21T07:24:55.660Z,1006.81
2018-07-21T07:25:55.673Z,1006.73
2018-07-21T07:26:55.715Z,1006.76
2018-07-21T07:27:55.708Z,1006.79
2018-07-21T07:28:55.725Z,1006.81
2018-07-21T07:29:55.752Z,1006.85
2018-07-21T07:30:55.775Z,1006.86
2018-07-21T07:31:55.783Z,1006.87
2018-07-21T07:32:55.852Z,1006.83
2018-07-21T07:33:55.870Z,1006.86
2018-07-21T07:34:55.837Z,1006.90
2018-07-21T07:35:55.853Z,1006.88
2018-07-21T07:36:55.868Z,1006.93
2018-07-21T07:37:55.890Z,1006.93
2018-07-21T07:38:55.952Z,1006.91
2018-07-21T07:39:55.965Z,1006.92
2018-07-21T07:40:55.932Z,1006.92
2018-07-21T07:41:55.952Z,1006.94
2018-07-21T07:42:55.980Z,1006.92
2018-07-21T07:43:55.989Z,1006.95
2018-07-21T07:44:56.009Z,1006.95
2018-07-21T07:45:56.079Z,1006.98
2018-07-21T07:46:56.043Z,1006.97
2018-07-21T07:47:56.071Z,1007.02
2018-07-21T07:48:56.080Z,1007.04
2018-07-21T07:49:56.094Z,1007.03
2018-07-21T07:50:56.118Z,1007.02
2018-07-21T07:51:56.182Z,1006.97
2018-07-21T07:52:56.151Z,1006.98
2018-07-21T07:53:56.175Z,1006.99
2018-07-21T07:54:56.200Z,1006.97
2018-07-21T07:55:56.207Z,1006.98
2018-07-21T07:56:56.233Z,1006.95
2018-07-21T07:57:56.390Z,1007.00
2018-07-21T07:58:56.259Z,1007.02
2018-07-21T07:59:56.278Z,1007.05
2018-07-21T08:00:56.295Z,1007.05
2018-07-21T08:01:56.316Z,1007.04
2018-07-21T08:02:56.339Z,1007.05
2018-07-21T08:03:56.358Z,1007.12
2018-07-21T08:04:56.371Z,1007.08
2018-07-21T08:05:56.393Z,1007.12
2018-07-21T08:06:56.405Z,1007.11
2018-07-21T08:07:56.430Z,1007.09
2018-07-21T08:08:56.448Z,1007.14
2018-07-21T08:09:56.512Z,1007.18
2018-07-21T08:10:56.503Z,1007.11
2018-07-21T08:11:56.502Z,1007.10
2018-07-21T08:12:56.520Z,1007.19
2018-07-21T08:13:56.540Z,1007.19
2018-07-21T08:14:56.558Z,1007.13
2018-07-21T08:15:56.675Z,1007.15
2018-07-21T08:16:56.592Z,1007.16
2018-07-21T08:17:56.610Z,1007.19
2018-07-21T08:18:56.629Z,1007.18
2018-07-21T08:19:56.643Z,1007.17
2018-07-21T08:20:56.665Z,1007.19
2018-07-21T08:21:56.813Z,1007.23
2018-07-21T08:22:56.706Z,1007.22
2018-07-21T08:23:56.730Z,1007.21
2018-07-21T08:24:56.746Z,1007.23
2018-07-21T08:25:56.764Z,1007.20
2018-07-21T08:26:56.783Z,1007.26
2018-07-21T08:27:56.854Z,1007.28
2018-07-21T08:28:56.835Z,1007.26
2018-07-21T08:29:56.836Z,1007.31
2018-07-21T08:30:56.869Z,1007.22
2018-07-21T08:31:56.875Z,1007.25
2018-07-21T08:32:56.892Z,1007.29
2018-07-21T08:33:57.005Z,1007.25
2018-07-21T08:34:56.936Z,1007.28
2018-07-21T08:35:56.957Z,1007.27
2018-07-21T08:36:56.973Z,1007.26
2018-07-21T08:37:56.997Z,1007.27
2018-07-21T08:38:57.007Z,1007.29
2018-07-21T08:39:57.087Z,1007.30
2018-07-21T08:40:57.050Z,1007.27
2018-07-21T08:41:57.071Z,1007.31
2018-07-21T08:42:57.091Z,1007.32
2018-07-21T08:43:57.165Z,1007.28
2018-07-21T08:44:57.127Z,1007.27
2018-07-21T08:45:57.154Z,1007.28
2018-07-21T08:46:57.166Z,1007.28
2018-07-21T08:47:57.178Z,1007.27
2018-07-21T08:48:57.206Z,1007.29
2018-07-21T08:49:57.309Z,1007.27
2018-07-21T08:50:57.243Z,1007.27
2018-07-21T08:51:57.267Z,1007.17
2018-07-21T08:52:57.283Z,1007.24
2018-07-21T08:53:57.305Z,1007.16
2018-07-21T08:54:57.321Z,1007.21
2018-07-21T08:55:57.404Z,1007.25
2018-07-21T08:56:57.363Z,1007.21
2018-07-21T08:57:57.445Z,1007.29
2018-07-21T08:58:57.397Z,1007.24
2018-07-21T08:59:57.416Z,1007.25
2018-07-21T09:00:57.435Z,1007.27
2018-07-21T09:01:57.457Z,1007.27
2018-07-21T09:02:57.481Z,1007.27
2018-07-21T09:03:57.547Z,1007.23
2018-07-21T09:04:57.513Z,1007.23
2018-07-21T09:05:57.537Z,1007.25
2018-07-21T09:06:57.560Z,1007.17
2018-07-21T09:07:57.577Z,1007.16
2018-07-21T09:08:57.649Z,1007.19
2018-07-21T09:09:57.664Z,1007.21
2018-07-21T09:10:57.634Z,1007.19
2018-07-21T09:11:57.661Z,1007.22
2018-07-21T09:12:57.677Z,1007.22
2018-07-21T09:13:57.698Z,1007.16
2018-07-21T09:14:57.725Z,1007.25
2018-07-21T09:15:57.823Z,1007.21
2018-07-21T09:16:57.759Z,1007.20
2018-07-21T09:17:57.780Z,1007.14
2018-07-21T09:18:57.801Z,1007.21
2018-07-21T09:19:57.815Z,1007.18
2018-07-21T09:20:57.849Z,1007.21
2018-07-21T09:21:57.879Z,1007.22
2018-07-21T09:22:57.875Z,1007.23
2018-07-21T09:23:57.945Z,1007.20
2018-07-21T09:24:57.932Z,1007.25
2018-07-21T09:25:57.962Z,1007.23
2018-07-21T09:26:57.957Z,1007.27
2018-07-21T09:27:57.990Z,1007.30
2018-07-21T09:28:58.002Z,1007.30
2018-07-21T09:29:58.033Z,1007.30
2018-07-21T09:30:58.052Z,1007.26
2018-07-21T09:31:58.073Z,1007.27
2018-07-21T09:32:58.096Z,1007.27
2018-07-21T09:33:58.109Z,1007.34
2018-07-21T09:34:58.125Z,1007.32
2018-07-21T09:35:58.151Z,1007.30
2018-07-21T09:36:58.177Z,1007.35
2018-07-21T09:37:58.197Z,1007.26
2018-07-21T09:38:58.212Z,1007.33
2018-07-21T09:39:58.284Z,1007.35
2018-07-21T09:40:58.251Z,1007.27
2018-07-21T09:41:58.272Z,1007.25
2018-07-21T09:42:58.295Z,1007.27
2018-07-21T09:43:58.310Z,1007.29
2018-07-21T09:44:58.338Z,1007.25
2018-07-21T09:45:58.357Z,1007.31
2018-07-21T09:46:58.438Z,1007.28
2018-07-21T09:47:58.393Z,1007.34
2018-07-21T09:48:58.417Z,1007.34
2018-07-21T09:49:58.441Z,1007.34
2018-07-21T09:50:58.469Z,1007.29
2018-07-21T09:51:58.540Z,1007.34
2018-07-21T09:52:58.561Z,1007.28
2018-07-21T09:53:58.532Z,1007.38
2018-07-21T09:54:58.548Z,1007.35
2018-07-21T09:55:58.653Z,1007.34
2018-07-21T09:56:58.595Z,1007.40
2018-07-21T09:57:58.664Z,1007.37
2018-07-21T09:58:58.694Z,1007.28
2018-07-21T09:59:58.658Z,1007.38
2018-07-21T10:00:58.678Z,1007.33
2018-07-21T10:01:58.704Z,1007.33
2018-07-21T10:02:58.722Z,1007.39
2018-07-21T10:03:58.739Z,1007.44
2018-07-21T10:04:58.767Z,1007.45
2018-07-21T10:05:58.786Z,1007.42
2018-07-21T10:06:58.802Z,1007.46
2018-07-21T10:07:58.828Z,1007.38
2018-07-21T10:08:58.855Z,1007.46
2018-07-21T10:09:58.869Z,1007.39
2018-07-21T10:10:58.891Z,1007.37
2018-07-21T10:11:58.915Z,1007.40
2018-07-21T10:12:58.930Z,1007.38
2018-07-21T10:13:58.949Z,1007.42
2018-07-21T10:14:58.977Z,1007.42
2018-07-21T10:15:59.003Z,1007.39
2018-07-21T10:16:59.022Z,1007.40
2018-07-21T10:17:59.040Z,1007.41
2018-07-21T10:18:59.063Z,1007.41
2018-07-21T10:19:59.077Z,1007.39
2018-07-21T10:20:59.103Z,1007.40
2018-07-21T10:21:59.212Z,1007.39
2018-07-21T10:22:59.141Z,1007.44
2018-07-21T10:23:59.176Z,1007.37
2018-07-21T10:24:59.191Z,1007.40
2018-07-21T10:25:59.213Z,1007.38
2018-07-21T10:26:59.228Z,1007.46
2018-07-21T10:27:59.253Z,1007.43
2018-07-21T10:28:59.280Z,1007.40
2018-07-21T10:29:59.333Z,1007.40
2018-07-21T10:30:59.326Z,1007.39
2018-07-21T10:31:59.352Z,1007.35
2018-07-21T10:32:59.364Z,1007.39
2018-07-21T10:33:59.443Z,1007.40
2018-07-21T10:34:59.407Z,1007.44
2018-07-21T10:35:59.570Z,1007.34
2018-07-21T10:36:59.449Z,1007.32
2018-07-21T10:37:59.488Z,1007.36
2018-07-21T10:38:59.493Z,1007.35
2018-07-21T10:39:59.571Z,1007.26
2018-07-21T10:40:59.548Z,1007.33
2018-07-21T10:41:59.631Z,1007.39
2018-07-21T10:42:59.591Z,1007.29
2018-07-21T10:43:59.604Z,1007.35
2018-07-21T10:44:59.639Z,1007.34
2018-07-21T10:45:59.706Z,1007.31
2018-07-21T10:46:59.675Z,1007.32
2018-07-21T10:47:59.755Z,1007.31
2018-07-21T10:48:59.721Z,1007.31
2018-07-21T10:49:59.743Z,1007.25
2018-07-21T10:50:59.769Z,1007.24
2018-07-21T10:51:59.839Z,1007.30
2018-07-21T10:52:59.810Z,1007.37
2018-07-21T10:53:59.833Z,1007.30
2018-07-21T10:54:59.859Z,1007.31
2018-07-21T10:55:59.879Z,1007.35
2018-07-21T10:56:59.906Z,1007.32
2018-07-21T10:57:59.920Z,1007.34
2018-07-21T10:58:59.944Z,1007.32
2018-07-21T10:59:59.964Z,1007.34
2018-07-21T11:00:59.987Z,1007.30
2018-07-21T11:02:00.005Z,1007.37
2018-07-21T11:03:00.039Z,1007.33
2018-07-21T11:04:00.118Z,1007.34
2018-07-21T11:05:00.077Z,1007.33
2018-07-21T11:06:00.099Z,1007.31
2018-07-21T11:07:00.121Z,1007.31
2018-07-21T11:08:00.192Z,1007.30
2018-07-21T11:09:00.168Z,1007.34
2018-07-21T11:10:00.192Z,1007.34
2018-07-21T11:11:00.217Z,1007.29
2018-07-21T11:12:00.271Z,1007.30
2018-07-21T11:13:00.261Z,1007.37
2018-07-21T11:14:00.277Z,1007.35
2018-07-21T11:15:00.355Z,1007.43
2018-07-21T11:16:00.381Z,1007.35
2018-07-21T11:17:00.355Z,1007.36
2018-07-21T11:18:00.375Z,1007.37
2018-07-21T11:19:00.403Z,1007.38
2018-07-21T11:20:00.422Z,1007.35
2018-07-21T11:21:00.448Z,1007.33
2018-07-21T11:22:00.501Z,1007.35
2018-07-21T11:23:00.488Z,1007.32
2018-07-21T11:24:00.516Z,1007.30
2018-07-21T11:25:00.541Z,1007.28
2018-07-21T11:26:00.562Z,1007.30
2018-07-21T11:27:00.580Z,1007.17
2018-07-21T11:28:00.656Z,1007.27
2018-07-21T11:29:00.624Z,1007.34
2018-07-21T11:30:00.652Z,1007.22
2018-07-21T11:31:00.673Z,1007.30
2018-07-21T11:32:00.696Z,1007.27
2018-07-21T11:33:00.718Z,1007.28
2018-07-21T11:34:00.792Z,1007.29
2018-07-21T11:35:00.764Z,1007.29
2018-07-21T11:36:01.151Z,1007.30
2018-07-21T11:37:00.811Z,1007.26
2018-07-21T11:38:00.839Z,1007.18
2018-07-21T11:39:00.864Z,1007.19
2018-07-21T11:40:00.937Z,1007.12
2018-07-21T11:41:00.906Z,1007.13
2018-07-21T11:42:00.924Z,1007.11
2018-07-21T11:43:01.031Z,1007.15
2018-07-21T11:44:00.967Z,1007.13
2018-07-21T11:45:00.991Z,1007.11
2018-07-21T11:46:01.018Z,1007.06
2018-07-21T11:47:01.042Z,1007.05
2018-07-21T11:48:01.060Z,1007.03
2018-07-21T11:49:01.176Z,1007.01
2018-07-21T11:50:01.111Z,1007.00
2018-07-21T11:51:01.164Z,1007.08
2018-07-21T11:52:01.162Z,1007.05
2018-07-21T11:53:01.187Z,1007.04
2018-07-21T11:54:01.201Z,1006.99
2018-07-21T11:55:01.293Z,1007.02
2018-07-21T11:56:01.266Z,1007.00
2018-07-21T11:57:01.273Z,1007.04
2018-07-21T11:58:01.344Z,1007.05
2018-07-21T11:59:01.364Z,1007.01
2018-07-21T12:00:01.345Z,1007.05
2018-07-21T12:01:01.372Z,1006.99
2018-07-21T12:02:01.388Z,1007.05
2018-07-21T12:03:01.422Z,1007.01
2018-07-21T12:04:01.436Z,1006.96
2018-07-21T12:05:01.460Z,1006.94
2018-07-21T12:06:01.487Z,1006.97